sensor_id;sensor_type;location;lat;lon;timestamp;P1;durP1;ratioP1;P2;durP2;ratioP2
52618;SDS011;38513;53.234;6.568;2022-12-29T00:00:11;9.35;;;6.05;;
52618;SDS011;38513;53.234;6.568;2022-12-29T00:02:38;9.45;;;6.30;;
52618;SDS011;38513;53.234;6.568;2022-12-29T00:05:04;8.93;;;6.70;;
52618;SDS011;38513;53.234;6.568;2022-12-29T00:07:30;9.45;;;7.05;;
52618;SDS011;38513;53.234;6.568;2022-12-29T00:09:56;8.65;;;6.38;;
52618;SDS011;38513;53.234;6.568;2022-12-29T00:12:23;8.73;;;7.13;;
52618;SDS011;38513;53.234;6.568;2022-12-29T00:14:49;8.65;;;7.18;;
52618;SDS011;38513;53.234;6.568;2022-12-29T00:17:34;9.35;;;7.10;;
52618;SDS011;38513;53.234;6.568;2022-12-29T00:20:00;9.20;;;7.47;;
52618;SDS011;38513;53.234;6.568;2022-12-29T00:22:45;10.00;;;7.03;;
52618;SDS011;38513;53.234;6.568;2022-12-29T00:25:29;8.40;;;6.53;;
52618;SDS011;38513;53.234;6.568;2022-12-29T00:28:14;9.68;;;6.53;;
52618;SDS011;38513;53.234;6.568;2022-12-29T00:30:59;8.43;;;6.35;;
52618;SDS011;38513;53.234;6.568;2022-12-29T00:33:44;9.00;;;6.20;;
52618;SDS011;38513;53.234;6.568;2022-12-29T00:36:38;9.83;;;6.60;;
52618;SDS011;38513;53.234;6.568;2022-12-29T00:39:07;8.70;;;6.25;;
52618;SDS011;38513;53.234;6.568;2022-12-29T00:41:52;8.77;;;6.32;;
52618;SDS011;38513;53.234;6.568;2022-12-29T00:44:39;7.83;;;5.80;;
52618;SDS011;38513;53.234;6.568;2022-12-29T00:47:06;8.23;;;5.40;;
52618;SDS011;38513;53.234;6.568;2022-12-29T00:49:33;9.00;;;5.90;;
52618;SDS011;38513;53.234;6.568;2022-12-29T00:54:25;8.82;;;6.15;;
52618;SDS011;38513;53.234;6.568;2022-12-29T00:56:51;10.65;;;6.13;;
52618;SDS011;38513;53.234;6.568;2022-12-29T00:59:18;9.73;;;5.97;;
52618;SDS011;38513;53.234;6.568;2022-12-29T01:01:45;8.80;;;6.00;;
52618;SDS011;38513;53.234;6.568;2022-12-29T01:04:14;9.55;;;6.15;;
52618;SDS011;38513;53.234;6.568;2022-12-29T01:06:43;9.13;;;5.72;;
52618;SDS011;38513;53.234;6.568;2022-12-29T01:09:09;7.90;;;6.10;;
52618;SDS011;38513;53.234;6.568;2022-12-29T01:11:55;9.45;;;6.03;;
52618;SDS011;38513;53.234;6.568;2022-12-29T01:14:22;8.00;;;5.72;;
52618;SDS011;38513;53.234;6.568;2022-12-29T01:16:48;8.10;;;6.00;;
52618;SDS011;38513;53.234;6.568;2022-12-29T01:19:14;8.13;;;5.82;;
52618;SDS011;38513;53.234;6.568;2022-12-29T01:21:47;9.13;;;6.03;;
52618;SDS011;38513;53.234;6.568;2022-12-29T01:24:17;8.75;;;6.25;;
52618;SDS011;38513;53.234;6.568;2022-12-29T01:26:43;8.35;;;5.88;;
52618;SDS011;38513;53.234;6.568;2022-12-29T01:29:09;7.97;;;5.90;;
52618;SDS011;38513;53.234;6.568;2022-12-29T01:31:36;8.40;;;5.82;;
52618;SDS011;38513;53.234;6.568;2022-12-29T01:34:02;8.77;;;5.93;;
52618;SDS011;38513;53.234;6.568;2022-12-29T01:36:28;8.65;;;5.70;;
52618;SDS011;38513;53.234;6.568;2022-12-29T01:38:56;7.85;;;6.13;;
52618;SDS011;38513;53.234;6.568;2022-12-29T01:41:25;9.32;;;6.13;;
52618;SDS011;38513;53.234;6.568;2022-12-29T01:44:01;8.70;;;5.90;;
52618;SDS011;38513;53.234;6.568;2022-12-29T01:46:29;8.90;;;5.97;;
52618;SDS011;38513;53.234;6.568;2022-12-29T01:49:04;10.13;;;6.85;;
52618;SDS011;38513;53.234;6.568;2022-12-29T01:51:31;10.75;;;6.60;;
52618;SDS011;38513;53.234;6.568;2022-12-29T01:53:59;8.52;;;6.55;;
52618;SDS011;38513;53.234;6.568;2022-12-29T01:56:27;10.27;;;6.77;;
52618;SDS011;38513;53.234;6.568;2022-12-29T01:58:56;11.00;;;7.70;;
52618;SDS011;38513;53.234;6.568;2022-12-29T02:01:26;9.50;;;7.55;;
52618;SDS011;38513;53.234;6.568;2022-12-29T02:03:52;11.55;;;8.20;;
52618;SDS011;38513;53.234;6.568;2022-12-29T02:06:21;11.30;;;8.38;;
52618;SDS011;38513;53.234;6.568;2022-12-29T02:08:47;11.30;;;8.48;;
52618;SDS011;38513;53.234;6.568;2022-12-29T02:11:15;11.25;;;8.70;;
52618;SDS011;38513;53.234;6.568;2022-12-29T02:13:42;13.57;;;8.93;;
52618;SDS011;38513;53.234;6.568;2022-12-29T02:23:53;9.40;;;6.90;;
52618;SDS011;38513;53.234;6.568;2022-12-29T02:26:29;8.40;;;5.97;;
52618;SDS011;38513;53.234;6.568;2022-12-29T02:29:06;8.95;;;6.07;;
52618;SDS011;38513;53.234;6.568;2022-12-29T02:36:47;8.02;;;4.82;;
52618;SDS011;38513;53.234;6.568;2022-12-29T02:49:48;8.15;;;3.90;;
52618;SDS011;38513;53.234;6.568;2022-12-29T02:52:20;6.70;;;3.40;;
52618;SDS011;38513;53.234;6.568;2022-12-29T02:54:49;7.10;;;3.53;;
52618;SDS011;38513;53.234;6.568;2022-12-29T02:57:28;6.93;;;3.80;;
52618;SDS011;38513;53.234;6.568;2022-12-29T02:59:56;7.43;;;3.88;;
52618;SDS011;38513;53.234;6.568;2022-12-29T03:12:50;7.47;;;3.55;;
52618;SDS011;38513;53.234;6.568;2022-12-29T03:15:41;6.50;;;3.00;;
52618;SDS011;38513;53.234;6.568;2022-12-29T03:18:36;5.97;;;3.30;;
52618;SDS011;38513;53.234;6.568;2022-12-29T03:21:28;7.22;;;3.28;;
52618;SDS011;38513;53.234;6.568;2022-12-29T03:24:13;5.57;;;3.05;;
52618;SDS011;38513;53.234;6.568;2022-12-29T03:26:39;6.25;;;2.85;;
52618;SDS011;38513;53.234;6.568;2022-12-29T03:29:07;7.45;;;3.08;;
52618;SDS011;38513;53.234;6.568;2022-12-29T03:31:38;6.75;;;2.97;;
52618;SDS011;38513;53.234;6.568;2022-12-29T03:34:05;5.93;;;2.40;;
52618;SDS011;38513;53.234;6.568;2022-12-29T03:36:40;7.50;;;2.65;;
52618;SDS011;38513;53.234;6.568;2022-12-29T03:39:10;8.52;;;2.40;;
52618;SDS011;38513;53.234;6.568;2022-12-29T03:41:37;6.90;;;2.28;;
52618;SDS011;38513;53.234;6.568;2022-12-29T03:44:14;6.25;;;1.83;;
52618;SDS011;38513;53.234;6.568;2022-12-29T03:46:40;7.95;;;2.00;;
52618;SDS011;38513;53.234;6.568;2022-12-29T03:49:07;7.37;;;1.80;;
52618;SDS011;38513;53.234;6.568;2022-12-29T03:51:34;7.28;;;1.90;;
52618;SDS011;38513;53.234;6.568;2022-12-29T03:54:00;6.95;;;2.00;;
52618;SDS011;38513;53.234;6.568;2022-12-29T03:56:26;7.20;;;2.20;;
52618;SDS011;38513;53.234;6.568;2022-12-29T03:58:52;6.85;;;2.00;;
52618;SDS011;38513;53.234;6.568;2022-12-29T04:01:19;7.65;;;1.92;;
52618;SDS011;38513;53.234;6.568;2022-12-29T04:03:45;8.15;;;2.30;;
52618;SDS011;38513;53.234;6.568;2022-12-29T04:06:11;6.22;;;2.10;;
52618;SDS011;38513;53.234;6.568;2022-12-29T04:08:37;5.40;;;2.25;;
52618;SDS011;38513;53.234;6.568;2022-12-29T04:11:04;6.70;;;2.25;;
52618;SDS011;38513;53.234;6.568;2022-12-29T04:13:30;6.30;;;2.33;;
52618;SDS011;38513;53.234;6.568;2022-12-29T04:15:57;6.20;;;2.10;;
52618;SDS011;38513;53.234;6.568;2022-12-29T04:18:23;7.65;;;2.20;;
52618;SDS011;38513;53.234;6.568;2022-12-29T04:20:49;5.90;;;2.10;;
52618;SDS011;38513;53.234;6.568;2022-12-29T04:23:36;7.57;;;1.98;;
52618;SDS011;38513;53.234;6.568;2022-12-29T04:26:03;6.15;;;2.00;;
52618;SDS011;38513;53.234;6.568;2022-12-29T04:28:32;7.93;;;1.95;;
52618;SDS011;38513;53.234;6.568;2022-12-29T04:30:59;8.60;;;1.75;;
52618;SDS011;38513;53.234;6.568;2022-12-29T04:33:25;7.68;;;1.75;;
52618;SDS011;38513;53.234;6.568;2022-12-29T04:35:51;8.45;;;1.80;;
52618;SDS011;38513;53.234;6.568;2022-12-29T04:38:21;7.18;;;1.80;;
52618;SDS011;38513;53.234;6.568;2022-12-29T04:40:47;6.88;;;1.65;;
52618;SDS011;38513;53.234;6.568;2022-12-29T04:43:14;8.27;;;1.55;;
52618;SDS011;38513;53.234;6.568;2022-12-29T04:45:44;11.23;;;1.83;;
52618;SDS011;38513;53.234;6.568;2022-12-29T04:48:10;8.48;;;1.70;;
52618;SDS011;38513;53.234;6.568;2022-12-29T04:50:39;7.67;;;1.60;;
52618;SDS011;38513;53.234;6.568;2022-12-29T04:53:06;9.50;;;2.05;;
52618;SDS011;38513;53.234;6.568;2022-12-29T04:55:32;9.53;;;1.57;;
52618;SDS011;38513;53.234;6.568;2022-12-29T04:57:58;9.00;;;1.83;;
52618;SDS011;38513;53.234;6.568;2022-12-29T05:00:24;8.73;;;1.85;;
52618;SDS011;38513;53.234;6.568;2022-12-29T05:02:51;8.00;;;1.75;;
52618;SDS011;38513;53.234;6.568;2022-12-29T05:05:17;8.40;;;1.80;;
52618;SDS011;38513;53.234;6.568;2022-12-29T05:07:43;12.13;;;2.15;;
52618;SDS011;38513;53.234;6.568;2022-12-29T05:10:10;11.02;;;2.13;;
52618;SDS011;38513;53.234;6.568;2022-12-29T05:12:39;11.13;;;2.30;;
52618;SDS011;38513;53.234;6.568;2022-12-29T05:15:05;9.88;;;2.08;;
52618;SDS011;38513;53.234;6.568;2022-12-29T05:17:34;13.02;;;2.50;;
52618;SDS011;38513;53.234;6.568;2022-12-29T05:20:00;13.23;;;2.85;;
52618;SDS011;38513;53.234;6.568;2022-12-29T05:22:27;13.60;;;2.50;;
52618;SDS011;38513;53.234;6.568;2022-12-29T05:24:53;13.25;;;2.45;;
52618;SDS011;38513;53.234;6.568;2022-12-29T05:27:19;12.35;;;2.45;;
52618;SDS011;38513;53.234;6.568;2022-12-29T05:29:45;15.27;;;2.90;;
52618;SDS011;38513;53.234;6.568;2022-12-29T05:32:11;12.15;;;2.72;;
52618;SDS011;38513;53.234;6.568;2022-12-29T05:34:38;13.20;;;2.83;;
52618;SDS011;38513;53.234;6.568;2022-12-29T05:37:04;13.85;;;2.88;;
52618;SDS011;38513;53.234;6.568;2022-12-29T05:39:30;11.32;;;2.58;;
52618;SDS011;38513;53.234;6.568;2022-12-29T05:41:59;13.10;;;2.72;;
52618;SDS011;38513;53.234;6.568;2022-12-29T05:44:26;15.93;;;2.97;;
52618;SDS011;38513;53.234;6.568;2022-12-29T05:47:01;14.25;;;2.88;;
52618;SDS011;38513;53.234;6.568;2022-12-29T05:49:28;15.52;;;2.75;;
52618;SDS011;38513;53.234;6.568;2022-12-29T05:51:54;13.27;;;3.10;;
52618;SDS011;38513;53.234;6.568;2022-12-29T05:54:20;15.98;;;3.17;;
52618;SDS011;38513;53.234;6.568;2022-12-29T05:56:49;14.33;;;3.07;;
52618;SDS011;38513;53.234;6.568;2022-12-29T05:59:21;14.38;;;2.80;;
52618;SDS011;38513;53.234;6.568;2022-12-29T06:01:47;13.77;;;3.08;;
52618;SDS011;38513;53.234;6.568;2022-12-29T06:04:13;13.85;;;2.97;;
52618;SDS011;38513;53.234;6.568;2022-12-29T06:06:39;14.75;;;2.90;;
52618;SDS011;38513;53.234;6.568;2022-12-29T06:09:09;14.23;;;2.97;;
52618;SDS011;38513;53.234;6.568;2022-12-29T06:11:36;15.35;;;2.97;;
52618;SDS011;38513;53.234;6.568;2022-12-29T06:14:03;14.88;;;3.20;;
52618;SDS011;38513;53.234;6.568;2022-12-29T06:16:29;12.80;;;3.10;;
52618;SDS011;38513;53.234;6.568;2022-12-29T06:18:55;16.00;;;2.90;;
52618;SDS011;38513;53.234;6.568;2022-12-29T06:21:21;16.63;;;3.17;;
52618;SDS011;38513;53.234;6.568;2022-12-29T06:23:47;13.43;;;2.40;;
52618;SDS011;38513;53.234;6.568;2022-12-29T06:26:13;13.38;;;2.70;;
52618;SDS011;38513;53.234;6.568;2022-12-29T06:28:40;12.55;;;3.00;;
52618;SDS011;38513;53.234;6.568;2022-12-29T06:31:09;14.93;;;3.17;;
52618;SDS011;38513;53.234;6.568;2022-12-29T06:33:37;15.50;;;3.30;;
52618;SDS011;38513;53.234;6.568;2022-12-29T06:36:03;16.00;;;2.80;;
52618;SDS011;38513;53.234;6.568;2022-12-29T06:38:30;18.70;;;3.38;;
52618;SDS011;38513;53.234;6.568;2022-12-29T06:40:58;14.75;;;3.45;;
52618;SDS011;38513;53.234;6.568;2022-12-29T06:43:25;18.15;;;3.70;;
52618;SDS011;38513;53.234;6.568;2022-12-29T06:45:51;20.50;;;4.03;;
52618;SDS011;38513;53.234;6.568;2022-12-29T06:48:18;15.35;;;3.30;;
52618;SDS011;38513;53.234;6.568;2022-12-29T06:53:57;17.23;;;3.40;;
52618;SDS011;38513;53.234;6.568;2022-12-29T06:56:24;19.30;;;3.33;;
52618;SDS011;38513;53.234;6.568;2022-12-29T06:59:03;15.32;;;2.70;;
52618;SDS011;38513;53.234;6.568;2022-12-29T07:01:30;17.67;;;3.30;;
52618;SDS011;38513;53.234;6.568;2022-12-29T07:03:57;17.20;;;3.30;;
52618;SDS011;38513;53.234;6.568;2022-12-29T07:06:30;19.52;;;3.88;;
52618;SDS011;38513;53.234;6.568;2022-12-29T07:08:57;18.35;;;3.45;;
52618;SDS011;38513;53.234;6.568;2022-12-29T07:11:23;18.23;;;4.28;;
52618;SDS011;38513;53.234;6.568;2022-12-29T07:13:49;17.95;;;3.60;;
52618;SDS011;38513;53.234;6.568;2022-12-29T07:16:16;16.37;;;3.30;;
52618;SDS011;38513;53.234;6.568;2022-12-29T07:18:43;20.10;;;4.03;;
52618;SDS011;38513;53.234;6.568;2022-12-29T07:21:09;16.80;;;3.60;;
52618;SDS011;38513;53.234;6.568;2022-12-29T07:23:36;18.58;;;3.60;;
52618;SDS011;38513;53.234;6.568;2022-12-29T07:26:03;22.10;;;4.25;;
52618;SDS011;38513;53.234;6.568;2022-12-29T07:28:30;18.42;;;3.63;;
52618;SDS011;38513;53.234;6.568;2022-12-29T07:30:57;18.92;;;3.88;;
52618;SDS011;38513;53.234;6.568;2022-12-29T07:33:23;20.27;;;3.83;;
52618;SDS011;38513;53.234;6.568;2022-12-29T07:35:50;17.08;;;3.28;;
52618;SDS011;38513;53.234;6.568;2022-12-29T07:38:19;16.08;;;3.70;;
52618;SDS011;38513;53.234;6.568;2022-12-29T07:40:45;18.48;;;3.80;;
52618;SDS011;38513;53.234;6.568;2022-12-29T07:43:12;17.70;;;3.47;;
52618;SDS011;38513;53.234;6.568;2022-12-29T07:45:38;15.98;;;3.67;;
52618;SDS011;38513;53.234;6.568;2022-12-29T07:48:07;15.77;;;3.53;;
52618;SDS011;38513;53.234;6.568;2022-12-29T07:50:34;20.35;;;4.03;;
52618;SDS011;38513;53.234;6.568;2022-12-29T07:53:01;19.00;;;3.50;;
52618;SDS011;38513;53.234;6.568;2022-12-29T07:55:27;19.08;;;3.75;;
52618;SDS011;38513;53.234;6.568;2022-12-29T07:57:54;17.42;;;3.13;;
52618;SDS011;38513;53.234;6.568;2022-12-29T08:00:20;16.67;;;3.30;;
52618;SDS011;38513;53.234;6.568;2022-12-29T08:02:47;18.60;;;4.63;;
52618;SDS011;38513;53.234;6.568;2022-12-29T08:05:13;18.52;;;4.07;;
52618;SDS011;38513;53.234;6.568;2022-12-29T08:07:42;18.02;;;3.65;;
52618;SDS011;38513;53.234;6.568;2022-12-29T08:10:08;16.13;;;3.30;;
52618;SDS011;38513;53.234;6.568;2022-12-29T08:12:42;16.00;;;3.20;;
52618;SDS011;38513;53.234;6.568;2022-12-29T08:15:09;16.92;;;3.65;;
52618;SDS011;38513;53.234;6.568;2022-12-29T08:17:35;16.35;;;3.70;;
52618;SDS011;38513;53.234;6.568;2022-12-29T08:20:02;17.38;;;3.92;;
52618;SDS011;38513;53.234;6.568;2022-12-29T08:22:28;16.45;;;3.83;;
52618;SDS011;38513;53.234;6.568;2022-12-29T08:24:54;18.17;;;3.78;;
52618;SDS011;38513;53.234;6.568;2022-12-29T08:27:21;16.33;;;3.78;;
52618;SDS011;38513;53.234;6.568;2022-12-29T08:29:47;18.70;;;4.13;;
52618;SDS011;38513;53.234;6.568;2022-12-29T08:32:14;20.15;;;3.97;;
52618;SDS011;38513;53.234;6.568;2022-12-29T08:34:44;21.17;;;4.07;;
52618;SDS011;38513;53.234;6.568;2022-12-29T08:37:10;18.57;;;4.27;;
52618;SDS011;38513;53.234;6.568;2022-12-29T08:39:39;21.55;;;4.07;;
52618;SDS011;38513;53.234;6.568;2022-12-29T08:42:05;18.27;;;3.95;;
52618;SDS011;38513;53.234;6.568;2022-12-29T08:44:31;19.70;;;4.20;;
52618;SDS011;38513;53.234;6.568;2022-12-29T08:46:57;20.60;;;4.32;;
52618;SDS011;38513;53.234;6.568;2022-12-29T08:49:23;19.20;;;4.10;;
52618;SDS011;38513;53.234;6.568;2022-12-29T08:51:50;20.02;;;4.10;;
52618;SDS011;38513;53.234;6.568;2022-12-29T08:54:16;24.45;;;4.55;;
52618;SDS011;38513;53.234;6.568;2022-12-29T08:56:42;23.30;;;4.72;;
52618;SDS011;38513;53.234;6.568;2022-12-29T08:59:08;23.88;;;4.95;;
52618;SDS011;38513;53.234;6.568;2022-12-29T09:01:34;23.58;;;4.53;;
52618;SDS011;38513;53.234;6.568;2022-12-29T09:04:01;22.63;;;4.63;;
52618;SDS011;38513;53.234;6.568;2022-12-29T09:06:27;22.27;;;4.60;;
52618;SDS011;38513;53.234;6.568;2022-12-29T09:08:54;23.30;;;4.63;;
52618;SDS011;38513;53.234;6.568;2022-12-29T09:11:21;24.60;;;4.90;;
52618;SDS011;38513;53.234;6.568;2022-12-29T09:13:48;23.15;;;4.63;;
52618;SDS011;38513;53.234;6.568;2022-12-29T09:16:15;22.05;;;5.13;;
52618;SDS011;38513;53.234;6.568;2022-12-29T09:18:41;29.20;;;5.65;;
52618;SDS011;38513;53.234;6.568;2022-12-29T09:21:10;23.43;;;5.20;;
52618;SDS011;38513;53.234;6.568;2022-12-29T09:23:39;26.15;;;5.50;;
52618;SDS011;38513;53.234;6.568;2022-12-29T09:26:05;23.88;;;5.50;;
52618;SDS011;38513;53.234;6.568;2022-12-29T09:28:32;25.27;;;5.05;;
52618;SDS011;38513;53.234;6.568;2022-12-29T09:30:58;25.88;;;5.22;;
52618;SDS011;38513;53.234;6.568;2022-12-29T09:33:27;20.43;;;4.90;;
52618;SDS011;38513;53.234;6.568;2022-12-29T09:35:57;25.08;;;5.28;;
52618;SDS011;38513;53.234;6.568;2022-12-29T09:38:24;23.70;;;5.20;;
52618;SDS011;38513;53.234;6.568;2022-12-29T09:41:01;24.50;;;5.03;;
52618;SDS011;38513;53.234;6.568;2022-12-29T09:48:44;21.00;;;4.90;;
52618;SDS011;38513;53.234;6.568;2022-12-29T09:51:13;23.15;;;4.75;;
52618;SDS011;38513;53.234;6.568;2022-12-29T09:53:42;19.85;;;3.88;;
52618;SDS011;38513;53.234;6.568;2022-12-29T09:56:30;21.88;;;4.20;;
52618;SDS011;38513;53.234;6.568;2022-12-29T09:59:00;20.50;;;3.97;;
52618;SDS011;38513;53.234;6.568;2022-12-29T10:01:32;17.73;;;3.58;;
52618;SDS011;38513;53.234;6.568;2022-12-29T10:04:00;21.05;;;4.00;;
52618;SDS011;38513;53.234;6.568;2022-12-29T10:06:47;19.70;;;3.90;;
52618;SDS011;38513;53.234;6.568;2022-12-29T10:19:43;19.65;;;3.72;;
52618;SDS011;38513;53.234;6.568;2022-12-29T10:24:54;21.58;;;4.15;;
52618;SDS011;38513;53.234;6.568;2022-12-29T10:27:27;21.83;;;4.32;;
52618;SDS011;38513;53.234;6.568;2022-12-29T10:29:56;16.27;;;3.88;;
52618;SDS011;38513;53.234;6.568;2022-12-29T10:35:18;17.98;;;4.28;;
52618;SDS011;38513;53.234;6.568;2022-12-29T10:43:07;21.90;;;4.67;;
52618;SDS011;38513;53.234;6.568;2022-12-29T10:45:38;18.63;;;4.07;;
52618;SDS011;38513;53.234;6.568;2022-12-29T10:48:09;15.82;;;3.72;;
52618;SDS011;38513;53.234;6.568;2022-12-29T10:50:37;22.75;;;3.95;;
52618;SDS011;38513;53.234;6.568;2022-12-29T10:53:07;18.35;;;4.35;;
52618;SDS011;38513;53.234;6.568;2022-12-29T10:55:37;22.45;;;4.35;;
52618;SDS011;38513;53.234;6.568;2022-12-29T10:58:04;24.02;;;4.72;;
52618;SDS011;38513;53.234;6.568;2022-12-29T11:00:31;21.23;;;4.40;;
52618;SDS011;38513;53.234;6.568;2022-12-29T11:05:49;24.30;;;5.30;;
52618;SDS011;38513;53.234;6.568;2022-12-29T11:08:19;23.17;;;5.15;;
52618;SDS011;38513;53.234;6.568;2022-12-29T11:10:46;24.83;;;5.03;;
52618;SDS011;38513;53.234;6.568;2022-12-29T11:13:26;21.73;;;4.67;;
52618;SDS011;38513;53.234;6.568;2022-12-29T11:15:52;25.90;;;5.40;;
52618;SDS011;38513;53.234;6.568;2022-12-29T11:20:45;22.83;;;5.13;;
52618;SDS011;38513;53.234;6.568;2022-12-29T11:28:40;22.45;;;6.13;;
52618;SDS011;38513;53.234;6.568;2022-12-29T11:31:09;26.17;;;5.53;;
52618;SDS011;38513;53.234;6.568;2022-12-29T11:33:43;31.85;;;6.18;;
52618;SDS011;38513;53.234;6.568;2022-12-29T11:36:20;32.42;;;6.05;;
52618;SDS011;38513;53.234;6.568;2022-12-29T11:38:51;27.67;;;6.20;;
52618;SDS011;38513;53.234;6.568;2022-12-29T11:41:20;27.45;;;5.35;;
52618;SDS011;38513;53.234;6.568;2022-12-29T11:43:46;29.98;;;5.45;;
52618;SDS011;38513;53.234;6.568;2022-12-29T11:46:17;26.85;;;5.65;;
52618;SDS011;38513;53.234;6.568;2022-12-29T11:48:45;27.98;;;5.72;;
52618;SDS011;38513;53.234;6.568;2022-12-29T11:51:12;28.83;;;5.55;;
52618;SDS011;38513;53.234;6.568;2022-12-29T11:53:46;27.58;;;5.85;;
52618;SDS011;38513;53.234;6.568;2022-12-29T11:56:17;26.57;;;5.60;;
52618;SDS011;38513;53.234;6.568;2022-12-29T11:58:48;25.92;;;5.57;;
52618;SDS011;38513;53.234;6.568;2022-12-29T12:03:44;26.83;;;5.38;;
52618;SDS011;38513;53.234;6.568;2022-12-29T12:06:18;25.13;;;5.93;;
52618;SDS011;38513;53.234;6.568;2022-12-29T12:08:53;27.30;;;5.45;;
52618;SDS011;38513;53.234;6.568;2022-12-29T12:11:25;27.50;;;6.15;;
52618;SDS011;38513;53.234;6.568;2022-12-29T12:14:27;25.70;;;5.40;;
52618;SDS011;38513;53.234;6.568;2022-12-29T12:16:55;28.00;;;6.07;;
52618;SDS011;38513;53.234;6.568;2022-12-29T12:21:59;27.00;;;5.57;;
52618;SDS011;38513;53.234;6.568;2022-12-29T12:27:03;31.08;;;6.25;;
52618;SDS011;38513;53.234;6.568;2022-12-29T12:32:08;29.43;;;5.90;;
52618;SDS011;38513;53.234;6.568;2022-12-29T12:34:39;24.73;;;4.95;;
52618;SDS011;38513;53.234;6.568;2022-12-29T12:37:16;19.93;;;4.93;;
52618;SDS011;38513;53.234;6.568;2022-12-29T12:48:02;18.27;;;4.37;;
52618;SDS011;38513;53.234;6.568;2022-12-29T12:55:47;20.90;;;4.38;;
52618;SDS011;38513;53.234;6.568;2022-12-29T13:06:22;15.80;;;3.60;;
52618;SDS011;38513;53.234;6.568;2022-12-29T13:08:57;18.83;;;3.67;;
52618;SDS011;38513;53.234;6.568;2022-12-29T13:16:41;13.82;;;3.08;;
52618;SDS011;38513;53.234;6.568;2022-12-29T13:19:23;16.95;;;4.70;;
52618;SDS011;38513;53.234;6.568;2022-12-29T13:24:36;14.55;;;3.00;;
52618;SDS011;38513;53.234;6.568;2022-12-29T13:27:11;11.63;;;2.40;;
52618;SDS011;38513;53.234;6.568;2022-12-29T13:40:43;18.08;;;3.60;;
52618;SDS011;38513;53.234;6.568;2022-12-29T13:43:12;16.27;;;3.90;;
52618;SDS011;38513;53.234;6.568;2022-12-29T13:45:39;13.90;;;2.90;;
52618;SDS011;38513;53.234;6.568;2022-12-29T13:48:14;18.35;;;5.22;;
52618;SDS011;38513;53.234;6.568;2022-12-29T13:50:43;13.43;;;2.80;;
52618;SDS011;38513;53.234;6.568;2022-12-29T13:56:07;14.32;;;3.22;;
52618;SDS011;38513;53.234;6.568;2022-12-29T13:58:47;12.38;;;3.17;;
52618;SDS011;38513;53.234;6.568;2022-12-29T14:01:22;16.60;;;3.33;;
52618;SDS011;38513;53.234;6.568;2022-12-29T14:03:50;15.90;;;2.95;;
52618;SDS011;38513;53.234;6.568;2022-12-29T14:06:24;16.25;;;3.50;;
52618;SDS011;38513;53.234;6.568;2022-12-29T14:08:52;13.95;;;3.03;;
52618;SDS011;38513;53.234;6.568;2022-12-29T14:11:20;13.65;;;3.10;;
52618;SDS011;38513;53.234;6.568;2022-12-29T14:13:47;15.85;;;3.05;;
52618;SDS011;38513;53.234;6.568;2022-12-29T14:19:15;12.05;;;2.47;;
52618;SDS011;38513;53.234;6.568;2022-12-29T14:21:49;14.95;;;3.17;;
52618;SDS011;38513;53.234;6.568;2022-12-29T14:34:47;14.40;;;2.88;;
52618;SDS011;38513;53.234;6.568;2022-12-29T14:40:17;17.10;;;3.05;;
52618;SDS011;38513;53.234;6.568;2022-12-29T14:42:43;16.02;;;3.13;;
52618;SDS011;38513;53.234;6.568;2022-12-29T14:47:40;16.10;;;3.17;;
52618;SDS011;38513;53.234;6.568;2022-12-29T14:50:11;15.38;;;3.03;;
52618;SDS011;38513;53.234;6.568;2022-12-29T14:52:55;16.35;;;3.85;;
52618;SDS011;38513;53.234;6.568;2022-12-29T14:58:00;19.63;;;3.57;;
52618;SDS011;38513;53.234;6.568;2022-12-29T15:00:33;19.13;;;3.78;;
52618;SDS011;38513;53.234;6.568;2022-12-29T15:05:43;18.42;;;3.47;;
52618;SDS011;38513;53.234;6.568;2022-12-29T15:08:17;16.60;;;3.90;;
52618;SDS011;38513;53.234;6.568;2022-12-29T15:10:45;19.70;;;5.10;;
52618;SDS011;38513;53.234;6.568;2022-12-29T15:13:15;20.10;;;4.57;;
52618;SDS011;38513;53.234;6.568;2022-12-29T15:15:41;17.33;;;4.05;;
52618;SDS011;38513;53.234;6.568;2022-12-29T15:18:15;18.70;;;3.95;;
52618;SDS011;38513;53.234;6.568;2022-12-29T15:20:41;20.45;;;4.30;;
52618;SDS011;38513;53.234;6.568;2022-12-29T15:23:09;16.15;;;3.42;;
52618;SDS011;38513;53.234;6.568;2022-12-29T15:25:36;20.38;;;3.95;;
52618;SDS011;38513;53.234;6.568;2022-12-29T15:28:03;18.45;;;3.92;;
52618;SDS011;38513;53.234;6.568;2022-12-29T15:30:30;18.40;;;4.03;;
52618;SDS011;38513;53.234;6.568;2022-12-29T15:32:56;19.70;;;4.57;;
52618;SDS011;38513;53.234;6.568;2022-12-29T15:37:55;18.77;;;3.78;;
52618;SDS011;38513;53.234;6.568;2022-12-29T15:40:26;19.58;;;4.35;;
52618;SDS011;38513;53.234;6.568;2022-12-29T15:45:34;21.77;;;4.22;;
52618;SDS011;38513;53.234;6.568;2022-12-29T15:48:01;19.98;;;4.10;;
52618;SDS011;38513;53.234;6.568;2022-12-29T15:50:29;17.50;;;3.90;;
52618;SDS011;38513;53.234;6.568;2022-12-29T15:52:57;19.65;;;4.55;;
52618;SDS011;38513;53.234;6.568;2022-12-29T15:55:28;18.40;;;4.90;;
52618;SDS011;38513;53.234;6.568;2022-12-29T15:57:57;20.65;;;4.50;;
52618;SDS011;38513;53.234;6.568;2022-12-29T16:00:25;16.80;;;4.03;;
52618;SDS011;38513;53.234;6.568;2022-12-29T16:02:53;23.40;;;5.97;;
52618;SDS011;38513;53.234;6.568;2022-12-29T16:05:20;19.33;;;4.85;;
52618;SDS011;38513;53.234;6.568;2022-12-29T16:07:53;18.35;;;3.85;;
52618;SDS011;38513;53.234;6.568;2022-12-29T16:13:04;15.02;;;3.22;;
52618;SDS011;38513;53.234;6.568;2022-12-29T16:15:31;15.70;;;3.63;;
52618;SDS011;38513;53.234;6.568;2022-12-29T16:17:57;19.13;;;4.60;;
52618;SDS011;38513;53.234;6.568;2022-12-29T16:20:24;17.13;;;4.18;;
52618;SDS011;38513;53.234;6.568;2022-12-29T16:23:09;21.42;;;4.50;;
52618;SDS011;38513;53.234;6.568;2022-12-29T16:25:38;20.83;;;4.40;;
52618;SDS011;38513;53.234;6.568;2022-12-29T16:28:17;20.17;;;4.40;;
52618;SDS011;38513;53.234;6.568;2022-12-29T16:30:44;19.30;;;3.78;;
52618;SDS011;38513;53.234;6.568;2022-12-29T16:33:29;13.95;;;2.70;;
52618;SDS011;38513;53.234;6.568;2022-12-29T16:35:58;14.48;;;3.28;;
52618;SDS011;38513;53.234;6.568;2022-12-29T16:38:30;15.57;;;3.67;;
52618;SDS011;38513;53.234;6.568;2022-12-29T16:40:57;16.88;;;3.60;;
52618;SDS011;38513;53.234;6.568;2022-12-29T16:43:24;14.23;;;2.90;;
52618;SDS011;38513;53.234;6.568;2022-12-29T16:48:21;15.30;;;3.47;;
52618;SDS011;38513;53.234;6.568;2022-12-29T16:50:47;14.48;;;3.25;;
52618;SDS011;38513;53.234;6.568;2022-12-29T17:01:37;12.20;;;2.30;;
52618;SDS011;38513;53.234;6.568;2022-12-29T17:04:05;11.10;;;2.42;;
52618;SDS011;38513;53.234;6.568;2022-12-29T17:06:32;11.07;;;2.30;;
52618;SDS011;38513;53.234;6.568;2022-12-29T17:09:01;12.27;;;3.42;;
52618;SDS011;38513;53.234;6.568;2022-12-29T17:11:31;13.17;;;2.97;;
52618;SDS011;38513;53.234;6.568;2022-12-29T17:16:51;13.73;;;3.10;;
52618;SDS011;38513;53.234;6.568;2022-12-29T17:19:18;13.98;;;3.40;;
52618;SDS011;38513;53.234;6.568;2022-12-29T17:21:45;13.05;;;3.90;;
52618;SDS011;38513;53.234;6.568;2022-12-29T17:24:17;17.20;;;4.47;;
52618;SDS011;38513;53.234;6.568;2022-12-29T17:26:48;15.50;;;3.67;;
52618;SDS011;38513;53.234;6.568;2022-12-29T17:29:18;16.15;;;4.00;;
52618;SDS011;38513;53.234;6.568;2022-12-29T17:31:48;14.60;;;5.03;;
52618;SDS011;38513;53.234;6.568;2022-12-29T17:34:14;21.75;;;5.22;;
52618;SDS011;38513;53.234;6.568;2022-12-29T17:36:43;20.42;;;5.68;;
52618;SDS011;38513;53.234;6.568;2022-12-29T17:39:10;23.07;;;4.70;;
52618;SDS011;38513;53.234;6.568;2022-12-29T17:41:37;21.00;;;5.07;;
52618;SDS011;38513;53.234;6.568;2022-12-29T17:44:04;21.45;;;4.85;;
52618;SDS011;38513;53.234;6.568;2022-12-29T17:46:31;21.08;;;4.68;;